21分钟前
罗盘
风向 的 风向 000° Enschede Airport Twente 5/23
风: 1 千吨, 1 beaufort
0 0 0.17778093859221 500 0.32299085377319 1.500 0.47075341907445 3.000 0.62138884920159 5.000 0.8022287624727 8.000 0.90566318494517 10.000
CAVOK
METAR EDDG 171620Z VRB01KT CAVOK 11/08 Q1020 NOSIG

METAR定义 | 嵌入

24小时趋势

航班类别VFRLIFR
温度13 °C5 °C
风速7 千吨0 千吨
能见度10 公里+0 米

更多历史数据

下载我们的安卓应用程序

从你的主屏幕上轻松地访问你的航空天气。
只需一次付费,您就可以获得无广告的体验。

您会帮助我们保持Metar-Taf.com正常运行吗?
您的贡献有助于网站的进一步开发并支付费用。

没有更多广告

您是捐款5美元还是更多?然后,我们将永远不会再向您展示广告,这是我们永恒的感谢!
捐赠前先登录

METAR Enschede Airport Twente

Enschede Airport Twente是Enschede,荷兰中的中型机场。 机场有{a,plural,=1{一条跑道} other{#跑道}}: 5/23

Enschede Airport Twente最近未发布观察结果。相反,我们向您显示56 km的报告Münster Osnabrück Airport。 该报告是针对2021年10月17日 18:20, 当地时间进行的。

机场观察

可变方向的风很小或没有风。

天气为CAVOK。这意味着在5.000 ft或MSA(最低安全高度)以下(以较高者为准)以下没有云。这也意味着没有观测到积雨云或高耸的积云,可见度为10 公里 或者更多或更高。此外,不会有雾,降雨或其他重要天气。

温度和风寒是11 °C。 露点为8 °C,相对湿度为82%。 海平面上的气压为1020 压力 (QNH)。

白天

今天,太阳从08:01升起,在18:33降落。 这适用于Enschede Airport Twente,世界夏令时可能有所不同。 当地时间与世界标准时间之间的时差为+2 小时。 夏令时目前正在进行中。

公司介绍

我们没有关于这个机场的公司信息。

体会

到Vliegles.nl去找飞行课程,跳伞和其他飞行体验。 浏览页面,了解Enschede Airport Twente附近所有可用的活动。 你也可以使用搜索功能来寻找你所在地附近的特定飞行课程、跳伞或其他飞行体验。

您是否要在网站上Enschede Airport Twente飞行的天气? 阅读更多   自由!